sensor_id;sensor_type;location;lat;lon;timestamp;P1;durP1;ratioP1;P2;durP2;ratioP2
75129;SDS011;63703;44.716;37.846;2023-03-01T00:01:49;7.50;;;5.93;;
75129;SDS011;63703;44.716;37.846;2023-03-01T00:04:15;9.07;;;6.55;;
75129;SDS011;63703;44.716;37.846;2023-03-01T00:06:42;8.15;;;6.72;;
75129;SDS011;63703;44.716;37.846;2023-03-01T00:09:11;7.40;;;6.40;;
75129;SDS011;63703;44.716;37.846;2023-03-01T00:11:38;7.70;;;6.28;;
75129;SDS011;63703;44.716;37.846;2023-03-01T00:14:04;9.82;;;8.57;;
75129;SDS011;63703;44.716;37.846;2023-03-01T00:16:33;7.57;;;6.80;;
75129;SDS011;63703;44.716;37.846;2023-03-01T00:19:01;11.00;;;7.18;;
75129;SDS011;63703;44.716;37.846;2023-03-01T00:21:27;10.77;;;5.38;;
75129;SDS011;63703;44.716;37.846;2023-03-01T00:23:53;8.50;;;6.75;;
75129;SDS011;63703;44.716;37.846;2023-03-01T00:26:21;7.65;;;6.30;;
75129;SDS011;63703;44.716;37.846;2023-03-01T00:28:48;8.48;;;7.50;;
75129;SDS011;63703;44.716;37.846;2023-03-01T00:31:16;9.48;;;7.60;;
75129;SDS011;63703;44.716;37.846;2023-03-01T00:33:46;8.68;;;6.38;;
75129;SDS011;63703;44.716;37.846;2023-03-01T00:36:13;8.77;;;7.78;;
75129;SDS011;63703;44.716;37.846;2023-03-01T00:38:41;10.93;;;8.95;;
75129;SDS011;63703;44.716;37.846;2023-03-01T00:41:10;8.70;;;7.32;;
75129;SDS011;63703;44.716;37.846;2023-03-01T00:43:37;8.68;;;7.28;;
75129;SDS011;63703;44.716;37.846;2023-03-01T00:46:04;8.95;;;6.00;;
75129;SDS011;63703;44.716;37.846;2023-03-01T00:48:35;9.38;;;6.38;;
75129;SDS011;63703;44.716;37.846;2023-03-01T00:51:15;7.03;;;6.32;;
75129;SDS011;63703;44.716;37.846;2023-03-01T00:53:41;7.10;;;3.90;;
75129;SDS011;63703;44.716;37.846;2023-03-01T00:56:08;9.20;;;8.18;;
75129;SDS011;63703;44.716;37.846;2023-03-01T00:58:36;9.07;;;7.40;;
75129;SDS011;63703;44.716;37.846;2023-03-01T01:01:12;8.48;;;7.25;;
75129;SDS011;63703;44.716;37.846;2023-03-01T01:03:47;7.20;;;6.00;;
75129;SDS011;63703;44.716;37.846;2023-03-01T01:06:18;8.63;;;7.05;;
75129;SDS011;63703;44.716;37.846;2023-03-01T01:08:50;9.63;;;8.77;;
75129;SDS011;63703;44.716;37.846;2023-03-01T01:11:17;8.13;;;6.65;;
75129;SDS011;63703;44.716;37.846;2023-03-01T01:13:45;8.73;;;7.15;;
75129;SDS011;63703;44.716;37.846;2023-03-01T01:16:12;9.82;;;6.88;;
75129;SDS011;63703;44.716;37.846;2023-03-01T01:18:39;6.30;;;5.57;;
75129;SDS011;63703;44.716;37.846;2023-03-01T01:21:08;7.80;;;5.90;;
75129;SDS011;63703;44.716;37.846;2023-03-01T01:23:36;7.72;;;6.50;;
75129;SDS011;63703;44.716;37.846;2023-03-01T01:26:04;7.18;;;6.38;;
75129;SDS011;63703;44.716;37.846;2023-03-01T01:28:32;7.50;;;6.00;;
75129;SDS011;63703;44.716;37.846;2023-03-01T01:30:58;7.80;;;6.95;;
75129;SDS011;63703;44.716;37.846;2023-03-01T01:33:24;7.20;;;6.47;;
75129;SDS011;63703;44.716;37.846;2023-03-01T01:35:51;6.53;;;4.32;;
75129;SDS011;63703;44.716;37.846;2023-03-01T01:38:17;7.00;;;5.95;;
75129;SDS011;63703;44.716;37.846;2023-03-01T01:40:43;8.30;;;6.40;;
75129;SDS011;63703;44.716;37.846;2023-03-01T01:43:24;6.63;;;5.57;;
75129;SDS011;63703;44.716;37.846;2023-03-01T01:45:56;5.82;;;5.03;;
75129;SDS011;63703;44.716;37.846;2023-03-01T01:48:48;6.32;;;3.17;;
75129;SDS011;63703;44.716;37.846;2023-03-01T01:51:18;6.35;;;5.30;;
75129;SDS011;63703;44.716;37.846;2023-03-01T01:53:50;6.65;;;5.20;;
75129;SDS011;63703;44.716;37.846;2023-03-01T01:56:18;6.43;;;5.82;;
75129;SDS011;63703;44.716;37.846;2023-03-01T01:58:46;5.40;;;4.80;;
75129;SDS011;63703;44.716;37.846;2023-03-01T02:01:13;5.78;;;4.78;;
75129;SDS011;63703;44.716;37.846;2023-03-01T02:03:39;6.65;;;6.05;;
75129;SDS011;63703;44.716;37.846;2023-03-01T02:08:43;4.97;;;4.53;;
75129;SDS011;63703;44.716;37.846;2023-03-01T02:11:11;4.28;;;3.85;;
75129;SDS011;63703;44.716;37.846;2023-03-01T02:13:39;6.03;;;5.53;;
75129;SDS011;63703;44.716;37.846;2023-03-01T02:16:13;5.80;;;5.30;;
75129;SDS011;63703;44.716;37.846;2023-03-01T02:18:40;4.25;;;3.80;;
75129;SDS011;63703;44.716;37.846;2023-03-01T02:21:24;5.13;;;4.63;;
75129;SDS011;63703;44.716;37.846;2023-03-01T02:26:45;5.18;;;4.03;;
75129;SDS011;63703;44.716;37.846;2023-03-01T02:29:14;5.55;;;4.13;;
75129;SDS011;63703;44.716;37.846;2023-03-01T02:31:40;3.83;;;3.28;;
75129;SDS011;63703;44.716;37.846;2023-03-01T02:36:51;5.45;;;4.28;;
75129;SDS011;63703;44.716;37.846;2023-03-01T02:39:34;4.45;;;4.00;;
75129;SDS011;63703;44.716;37.846;2023-03-01T02:42:09;3.53;;;3.03;;
75129;SDS011;63703;44.716;37.846;2023-03-01T02:44:37;3.58;;;3.25;;
75129;SDS011;63703;44.716;37.846;2023-03-01T02:47:03;3.65;;;3.03;;
75129;SDS011;63703;44.716;37.846;2023-03-01T02:49:32;4.78;;;4.15;;
75129;SDS011;63703;44.716;37.846;2023-03-01T02:57:38;4.35;;;3.95;;
75129;SDS011;63703;44.716;37.846;2023-03-01T03:00:13;4.50;;;3.95;;
75129;SDS011;63703;44.716;37.846;2023-03-01T03:02:47;4.88;;;3.67;;
75129;SDS011;63703;44.716;37.846;2023-03-01T03:05:19;5.20;;;4.47;;
75129;SDS011;63703;44.716;37.846;2023-03-01T03:07:51;5.90;;;4.95;;
75129;SDS011;63703;44.716;37.846;2023-03-01T03:10:19;6.15;;;5.55;;
75129;SDS011;63703;44.716;37.846;2023-03-01T03:12:57;5.38;;;4.47;;
75129;SDS011;63703;44.716;37.846;2023-03-01T03:15:29;5.10;;;4.10;;
75129;SDS011;63703;44.716;37.846;2023-03-01T03:17:56;5.97;;;5.38;;
75129;SDS011;63703;44.716;37.846;2023-03-01T03:20:24;6.78;;;5.03;;
75129;SDS011;63703;44.716;37.846;2023-03-01T03:22:52;8.02;;;5.13;;
75129;SDS011;63703;44.716;37.846;2023-03-01T03:25:20;5.47;;;4.95;;
75129;SDS011;63703;44.716;37.846;2023-03-01T03:27:49;6.20;;;4.53;;
75129;SDS011;63703;44.716;37.846;2023-03-01T03:30:22;5.57;;;4.40;;
75129;SDS011;63703;44.716;37.846;2023-03-01T03:32:53;4.93;;;3.78;;
75129;SDS011;63703;44.716;37.846;2023-03-01T03:35:20;6.50;;;5.28;;
75129;SDS011;63703;44.716;37.846;2023-03-01T03:37:50;5.93;;;5.32;;
75129;SDS011;63703;44.716;37.846;2023-03-01T03:40:35;6.00;;;5.32;;
75129;SDS011;63703;44.716;37.846;2023-03-01T03:43:04;5.20;;;3.72;;
75129;SDS011;63703;44.716;37.846;2023-03-01T03:45:31;5.80;;;4.45;;
75129;SDS011;63703;44.716;37.846;2023-03-01T03:47:59;5.97;;;5.45;;
75129;SDS011;63703;44.716;37.846;2023-03-01T03:50:25;4.57;;;4.18;;
75129;SDS011;63703;44.716;37.846;2023-03-01T03:52:51;4.43;;;3.78;;
75129;SDS011;63703;44.716;37.846;2023-03-01T03:55:18;10.18;;;5.60;;
75129;SDS011;63703;44.716;37.846;2023-03-01T03:57:45;6.40;;;5.25;;
75129;SDS011;63703;44.716;37.846;2023-03-01T04:00:20;5.03;;;4.53;;
75129;SDS011;63703;44.716;37.846;2023-03-01T04:02:49;5.72;;;4.88;;
75129;SDS011;63703;44.716;37.846;2023-03-01T04:05:16;5.65;;;5.07;;
75129;SDS011;63703;44.716;37.846;2023-03-01T04:07:44;5.22;;;4.72;;
75129;SDS011;63703;44.716;37.846;2023-03-01T04:10:12;7.82;;;4.97;;
75129;SDS011;63703;44.716;37.846;2023-03-01T04:12:42;9.20;;;5.05;;
75129;SDS011;63703;44.716;37.846;2023-03-01T04:15:08;5.85;;;5.00;;
75129;SDS011;63703;44.716;37.846;2023-03-01T04:17:39;6.80;;;5.47;;
75129;SDS011;63703;44.716;37.846;2023-03-01T04:20:07;6.60;;;5.70;;
75129;SDS011;63703;44.716;37.846;2023-03-01T04:22:39;7.18;;;5.95;;
75129;SDS011;63703;44.716;37.846;2023-03-01T04:25:06;6.78;;;5.90;;
75129;SDS011;63703;44.716;37.846;2023-03-01T04:27:33;8.45;;;7.40;;
75129;SDS011;63703;44.716;37.846;2023-03-01T04:29:59;8.63;;;7.05;;
75129;SDS011;63703;44.716;37.846;2023-03-01T04:32:25;9.55;;;5.13;;
75129;SDS011;63703;44.716;37.846;2023-03-01T04:34:51;7.88;;;4.82;;
75129;SDS011;63703;44.716;37.846;2023-03-01T04:37:17;5.22;;;4.43;;
75129;SDS011;63703;44.716;37.846;2023-03-01T04:39:43;5.30;;;4.13;;
75129;SDS011;63703;44.716;37.846;2023-03-01T04:42:15;7.07;;;6.28;;
75129;SDS011;63703;44.716;37.846;2023-03-01T04:44:42;5.57;;;4.28;;
75129;SDS011;63703;44.716;37.846;2023-03-01T04:47:08;5.90;;;4.90;;
75129;SDS011;63703;44.716;37.846;2023-03-01T04:49:35;6.40;;;5.35;;
75129;SDS011;63703;44.716;37.846;2023-03-01T04:52:01;5.70;;;4.32;;
75129;SDS011;63703;44.716;37.846;2023-03-01T04:54:33;8.45;;;7.03;;
75129;SDS011;63703;44.716;37.846;2023-03-01T04:57:00;15.15;;;5.93;;
75129;SDS011;63703;44.716;37.846;2023-03-01T04:59:26;6.60;;;5.63;;
75129;SDS011;63703;44.716;37.846;2023-03-01T05:01:53;8.90;;;5.45;;
75129;SDS011;63703;44.716;37.846;2023-03-01T05:04:22;11.35;;;7.60;;
75129;SDS011;63703;44.716;37.846;2023-03-01T05:06:48;6.63;;;5.18;;
75129;SDS011;63703;44.716;37.846;2023-03-01T05:09:15;7.82;;;6.97;;
75129;SDS011;63703;44.716;37.846;2023-03-01T05:11:41;6.65;;;5.68;;
75129;SDS011;63703;44.716;37.846;2023-03-01T05:14:08;9.13;;;6.35;;
75129;SDS011;63703;44.716;37.846;2023-03-01T05:16:35;7.40;;;6.32;;
75129;SDS011;63703;44.716;37.846;2023-03-01T05:19:02;8.43;;;5.55;;
75129;SDS011;63703;44.716;37.846;2023-03-01T05:21:39;13.50;;;6.40;;
75129;SDS011;63703;44.716;37.846;2023-03-01T05:24:25;13.38;;;6.88;;
75129;SDS011;63703;44.716;37.846;2023-03-01T05:26:52;16.58;;;8.18;;
75129;SDS011;63703;44.716;37.846;2023-03-01T05:29:18;11.95;;;6.47;;
75129;SDS011;63703;44.716;37.846;2023-03-01T05:31:52;13.02;;;8.27;;
75129;SDS011;63703;44.716;37.846;2023-03-01T05:34:19;9.00;;;6.88;;
75129;SDS011;63703;44.716;37.846;2023-03-01T05:36:48;13.75;;;5.43;;
75129;SDS011;63703;44.716;37.846;2023-03-01T05:39:21;13.52;;;4.47;;
75129;SDS011;63703;44.716;37.846;2023-03-01T05:41:52;13.57;;;7.38;;
75129;SDS011;63703;44.716;37.846;2023-03-01T05:44:19;12.98;;;7.35;;
75129;SDS011;63703;44.716;37.846;2023-03-01T05:46:45;22.85;;;5.75;;
75129;SDS011;63703;44.716;37.846;2023-03-01T05:49:12;17.58;;;8.98;;
75129;SDS011;63703;44.716;37.846;2023-03-01T05:51:41;17.08;;;8.13;;
75129;SDS011;63703;44.716;37.846;2023-03-01T05:54:09;12.50;;;8.20;;
75129;SDS011;63703;44.716;37.846;2023-03-01T05:56:36;15.05;;;8.95;;
75129;SDS011;63703;44.716;37.846;2023-03-01T05:59:03;23.27;;;8.85;;
75129;SDS011;63703;44.716;37.846;2023-03-01T06:01:30;17.92;;;8.90;;
75129;SDS011;63703;44.716;37.846;2023-03-01T06:03:59;12.07;;;7.88;;
75129;SDS011;63703;44.716;37.846;2023-03-01T06:06:26;18.42;;;7.82;;
75129;SDS011;63703;44.716;37.846;2023-03-01T06:08:52;18.08;;;8.43;;
75129;SDS011;63703;44.716;37.846;2023-03-01T06:11:18;13.38;;;7.50;;
75129;SDS011;63703;44.716;37.846;2023-03-01T06:13:45;12.40;;;7.25;;
75129;SDS011;63703;44.716;37.846;2023-03-01T06:16:12;19.60;;;9.07;;
75129;SDS011;63703;44.716;37.846;2023-03-01T06:18:39;21.85;;;9.05;;
75129;SDS011;63703;44.716;37.846;2023-03-01T06:21:05;14.57;;;8.27;;
75129;SDS011;63703;44.716;37.846;2023-03-01T06:23:33;15.45;;;9.10;;
75129;SDS011;63703;44.716;37.846;2023-03-01T06:25:59;18.23;;;9.93;;
75129;SDS011;63703;44.716;37.846;2023-03-01T06:28:25;17.95;;;9.25;;
75129;SDS011;63703;44.716;37.846;2023-03-01T06:30:51;15.43;;;10.48;;
75129;SDS011;63703;44.716;37.846;2023-03-01T06:33:18;19.48;;;8.35;;
75129;SDS011;63703;44.716;37.846;2023-03-01T06:35:49;15.48;;;9.98;;
75129;SDS011;63703;44.716;37.846;2023-03-01T06:38:16;18.17;;;10.77;;
75129;SDS011;63703;44.716;37.846;2023-03-01T06:40:44;12.52;;;9.30;;
75129;SDS011;63703;44.716;37.846;2023-03-01T06:43:10;14.25;;;8.68;;
75129;SDS011;63703;44.716;37.846;2023-03-01T06:45:36;19.73;;;8.95;;
75129;SDS011;63703;44.716;37.846;2023-03-01T06:48:05;15.05;;;9.63;;
75129;SDS011;63703;44.716;37.846;2023-03-01T06:50:33;17.05;;;7.93;;
75129;SDS011;63703;44.716;37.846;2023-03-01T06:52:59;18.50;;;9.40;;
75129;SDS011;63703;44.716;37.846;2023-03-01T06:55:26;13.88;;;7.85;;
75129;SDS011;63703;44.716;37.846;2023-03-01T06:57:55;26.60;;;9.30;;
75129;SDS011;63703;44.716;37.846;2023-03-01T07:00:22;20.40;;;9.02;;
75129;SDS011;63703;44.716;37.846;2023-03-01T07:02:49;22.63;;;8.70;;
75129;SDS011;63703;44.716;37.846;2023-03-01T07:05:15;19.95;;;10.07;;
75129;SDS011;63703;44.716;37.846;2023-03-01T07:07:41;15.95;;;8.48;;
75129;SDS011;63703;44.716;37.846;2023-03-01T07:10:07;13.38;;;8.60;;
75129;SDS011;63703;44.716;37.846;2023-03-01T07:12:33;22.05;;;9.90;;
75129;SDS011;63703;44.716;37.846;2023-03-01T07:14:59;15.40;;;8.32;;
75129;SDS011;63703;44.716;37.846;2023-03-01T07:17:25;25.70;;;10.00;;
75129;SDS011;63703;44.716;37.846;2023-03-01T07:19:51;12.95;;;7.90;;
75129;SDS011;63703;44.716;37.846;2023-03-01T07:22:17;16.85;;;9.95;;
75129;SDS011;63703;44.716;37.846;2023-03-01T07:24:43;21.25;;;8.27;;
75129;SDS011;63703;44.716;37.846;2023-03-01T07:27:09;17.48;;;8.57;;
75129;SDS011;63703;44.716;37.846;2023-03-01T07:29:35;14.55;;;7.38;;
75129;SDS011;63703;44.716;37.846;2023-03-01T07:32:02;22.67;;;8.77;;
75129;SDS011;63703;44.716;37.846;2023-03-01T07:34:29;14.38;;;8.80;;
75129;SDS011;63703;44.716;37.846;2023-03-01T07:36:55;13.63;;;7.38;;
75129;SDS011;63703;44.716;37.846;2023-03-01T07:39:21;18.90;;;8.65;;
75129;SDS011;63703;44.716;37.846;2023-03-01T07:41:48;17.25;;;9.57;;
75129;SDS011;63703;44.716;37.846;2023-03-01T07:44:19;21.63;;;9.15;;
75129;SDS011;63703;44.716;37.846;2023-03-01T07:46:45;18.90;;;9.98;;
75129;SDS011;63703;44.716;37.846;2023-03-01T07:49:11;14.95;;;9.50;;
75129;SDS011;63703;44.716;37.846;2023-03-01T07:51:37;13.00;;;8.93;;
75129;SDS011;63703;44.716;37.846;2023-03-01T07:54:03;14.77;;;9.30;;
75129;SDS011;63703;44.716;37.846;2023-03-01T07:56:29;25.00;;;8.65;;
75129;SDS011;63703;44.716;37.846;2023-03-01T07:58:55;14.77;;;8.93;;
75129;SDS011;63703;44.716;37.846;2023-03-01T08:01:21;16.63;;;9.70;;
75129;SDS011;63703;44.716;37.846;2023-03-01T08:03:47;14.73;;;9.95;;
75129;SDS011;63703;44.716;37.846;2023-03-01T08:06:14;17.95;;;8.85;;
75129;SDS011;63703;44.716;37.846;2023-03-01T08:08:41;17.10;;;9.30;;
75129;SDS011;63703;44.716;37.846;2023-03-01T08:11:09;12.13;;;9.45;;
75129;SDS011;63703;44.716;37.846;2023-03-01T08:13:36;13.38;;;8.82;;
75129;SDS011;63703;44.716;37.846;2023-03-01T08:16:03;23.60;;;8.63;;
75129;SDS011;63703;44.716;37.846;2023-03-01T08:18:31;34.85;;;8.50;;
75129;SDS011;63703;44.716;37.846;2023-03-01T08:21:01;12.13;;;8.48;;
75129;SDS011;63703;44.716;37.846;2023-03-01T08:23:31;15.85;;;8.20;;
75129;SDS011;63703;44.716;37.846;2023-03-01T08:26:08;20.10;;;6.43;;
75129;SDS011;63703;44.716;37.846;2023-03-01T08:28:37;15.88;;;5.63;;
75129;SDS011;63703;44.716;37.846;2023-03-01T08:31:13;16.50;;;8.85;;
75129;SDS011;63703;44.716;37.846;2023-03-01T08:33:40;15.43;;;8.98;;
75129;SDS011;63703;44.716;37.846;2023-03-01T08:36:06;15.18;;;9.65;;
75129;SDS011;63703;44.716;37.846;2023-03-01T08:38:33;25.05;;;9.68;;
75129;SDS011;63703;44.716;37.846;2023-03-01T08:41:00;19.50;;;8.88;;
75129;SDS011;63703;44.716;37.846;2023-03-01T08:43:27;20.27;;;10.68;;
75129;SDS011;63703;44.716;37.846;2023-03-01T08:45:53;17.95;;;8.63;;
75129;SDS011;63703;44.716;37.846;2023-03-01T08:48:19;15.90;;;8.75;;
75129;SDS011;63703;44.716;37.846;2023-03-01T08:50:45;14.52;;;6.25;;
75129;SDS011;63703;44.716;37.846;2023-03-01T08:53:11;18.85;;;8.13;;
75129;SDS011;63703;44.716;37.846;2023-03-01T08:55:37;15.30;;;6.55;;
75129;SDS011;63703;44.716;37.846;2023-03-01T08:58:03;16.85;;;7.60;;
75129;SDS011;63703;44.716;37.846;2023-03-01T09:00:29;15.73;;;9.70;;
75129;SDS011;63703;44.716;37.846;2023-03-01T09:02:55;24.17;;;9.85;;
75129;SDS011;63703;44.716;37.846;2023-03-01T09:05:21;16.92;;;9.35;;
75129;SDS011;63703;44.716;37.846;2023-03-01T09:07:47;16.02;;;8.73;;
75129;SDS011;63703;44.716;37.846;2023-03-01T09:10:12;14.90;;;9.65;;
75129;SDS011;63703;44.716;37.846;2023-03-01T09:12:38;19.70;;;12.35;;
75129;SDS011;63703;44.716;37.846;2023-03-01T09:15:06;21.50;;;11.10;;
75129;SDS011;63703;44.716;37.846;2023-03-01T09:17:33;19.55;;;12.23;;
75129;SDS011;63703;44.716;37.846;2023-03-01T09:19:59;18.00;;;9.25;;
75129;SDS011;63703;44.716;37.846;2023-03-01T09:22:25;17.85;;;9.85;;
75129;SDS011;63703;44.716;37.846;2023-03-01T09:24:51;17.90;;;9.95;;
75129;SDS011;63703;44.716;37.846;2023-03-01T09:27:17;17.02;;;7.18;;
75129;SDS011;63703;44.716;37.846;2023-03-01T09:29:44;18.00;;;10.43;;
75129;SDS011;63703;44.716;37.846;2023-03-01T09:32:10;18.15;;;9.05;;
75129;SDS011;63703;44.716;37.846;2023-03-01T09:34:36;19.40;;;10.07;;
75129;SDS011;63703;44.716;37.846;2023-03-01T09:37:22;21.33;;;10.50;;
75129;SDS011;63703;44.716;37.846;2023-03-01T09:39:48;16.88;;;9.35;;
75129;SDS011;63703;44.716;37.846;2023-03-01T09:42:14;24.08;;;7.85;;
75129;SDS011;63703;44.716;37.846;2023-03-01T09:47:17;18.20;;;8.73;;
75129;SDS011;63703;44.716;37.846;2023-03-01T09:50:10;17.70;;;10.75;;
75129;SDS011;63703;44.716;37.846;2023-03-01T09:58:23;16.38;;;9.57;;
75129;SDS011;63703;44.716;37.846;2023-03-01T10:00:59;17.42;;;10.30;;
75129;SDS011;63703;44.716;37.846;2023-03-01T10:03:48;20.05;;;11.25;;
75129;SDS011;63703;44.716;37.846;2023-03-01T10:07:32;17.98;;;10.30;;
75129;SDS011;63703;44.716;37.846;2023-03-01T10:09:36;17.55;;;9.50;;
75129;SDS011;63703;44.716;37.846;2023-03-01T10:12:08;25.02;;;11.32;;
75129;SDS011;63703;44.716;37.846;2023-03-01T10:14:48;21.80;;;11.88;;
75129;SDS011;63703;44.716;37.846;2023-03-01T10:17:24;18.38;;;10.60;;
75129;SDS011;63703;44.716;37.846;2023-03-01T10:20:45;20.00;;;11.52;;
75129;SDS011;63703;44.716;37.846;2023-03-01T10:25:31;18.75;;;10.55;;
75129;SDS011;63703;44.716;37.846;2023-03-01T10:28:26;13.77;;;9.13;;
75129;SDS011;63703;44.716;37.846;2023-03-01T10:30:59;14.65;;;8.35;;
75129;SDS011;63703;44.716;37.846;2023-03-01T10:33:32;17.83;;;9.65;;
75129;SDS011;63703;44.716;37.846;2023-03-01T10:36:02;16.00;;;11.18;;
75129;SDS011;63703;44.716;37.846;2023-03-01T10:38:30;15.95;;;10.45;;
75129;SDS011;63703;44.716;37.846;2023-03-01T10:41:11;18.40;;;10.20;;
75129;SDS011;63703;44.716;37.846;2023-03-01T10:43:45;16.48;;;10.55;;
75129;SDS011;63703;44.716;37.846;2023-03-01T10:46:29;25.98;;;9.43;;
75129;SDS011;63703;44.716;37.846;2023-03-01T10:51:52;20.00;;;9.52;;
75129;SDS011;63703;44.716;37.846;2023-03-01T10:54:20;30.25;;;9.38;;
75129;SDS011;63703;44.716;37.846;2023-03-01T10:56:58;14.98;;;7.93;;
75129;SDS011;63703;44.716;37.846;2023-03-01T11:02:03;19.75;;;8.23;;
75129;SDS011;63703;44.716;37.846;2023-03-01T11:04:36;18.77;;;7.93;;
75129;SDS011;63703;44.716;37.846;2023-03-01T11:07:02;13.75;;;8.93;;
75129;SDS011;63703;44.716;37.846;2023-03-01T11:09:32;16.70;;;8.45;;
75129;SDS011;63703;44.716;37.846;2023-03-01T11:12:08;18.75;;;9.63;;
75129;SDS011;63703;44.716;37.846;2023-03-01T11:14:51;16.70;;;7.68;;
75129;SDS011;63703;44.716;37.846;2023-03-01T11:17:28;12.80;;;7.18;;
75129;SDS011;63703;44.716;37.846;2023-03-01T11:22:43;16.88;;;7.32;;
75129;SDS011;63703;44.716;37.846;2023-03-01T11:25:19;10.48;;;5.38;;
75129;SDS011;63703;44.716;37.846;2023-03-01T11:27:53;10.68;;;7.10;;
75129;SDS011;63703;44.716;37.846;2023-03-01T11:35:53;16.02;;;7.28;;
75129;SDS011;63703;44.716;37.846;2023-03-01T11:38:26;14.82;;;7.40;;
75129;SDS011;63703;44.716;37.846;2023-03-01T11:40:54;13.93;;;7.82;;
75129;SDS011;63703;44.716;37.846;2023-03-01T11:51:25;10.00;;;6.43;;
75129;SDS011;63703;44.716;37.846;2023-03-01T11:59:39;10.15;;;5.63;;
75129;SDS011;63703;44.716;37.846;2023-03-01T12:13:27;11.05;;;5.57;;
75129;SDS011;63703;44.716;37.846;2023-03-01T12:16:11;11.82;;;6.68;;
75129;SDS011;63703;44.716;37.846;2023-03-01T12:21:35;12.10;;;6.50;;
75129;SDS011;63703;44.716;37.846;2023-03-01T12:24:20;19.63;;;7.43;;
75129;SDS011;63703;44.716;37.846;2023-03-01T12:26:55;9.13;;;5.22;;
75129;SDS011;63703;44.716;37.846;2023-03-01T12:32:15;9.32;;;6.47;;
75129;SDS011;63703;44.716;37.846;2023-03-01T12:34:52;10.63;;;6.07;;
75129;SDS011;63703;44.716;37.846;2023-03-01T12:37:23;12.15;;;5.57;;
75129;SDS011;63703;44.716;37.846;2023-03-01T12:42:58;12.55;;;6.45;;
75129;SDS011;63703;44.716;37.846;2023-03-01T12:48:17;16.80;;;5.45;;
75129;SDS011;63703;44.716;37.846;2023-03-01T12:51:10;8.77;;;4.82;;
75129;SDS011;63703;44.716;37.846;2023-03-01T12:53:41;11.68;;;4.30;;
75129;SDS011;63703;44.716;37.846;2023-03-01T12:56:14;10.93;;;5.40;;
75129;SDS011;63703;44.716;37.846;2023-03-01T13:04:46;9.35;;;5.05;;
75129;SDS011;63703;44.716;37.846;2023-03-01T13:10:52;10.27;;;5.95;;
75129;SDS011;63703;44.716;37.846;2023-03-01T13:13:31;13.23;;;5.80;;
75129;SDS011;63703;44.716;37.846;2023-03-01T13:15:57;10.68;;;5.53;;
75129;SDS011;63703;44.716;37.846;2023-03-01T13:18:43;13.63;;;6.78;;
75129;SDS011;63703;44.716;37.846;2023-03-01T13:21:09;12.02;;;5.90;;
75129;SDS011;63703;44.716;37.846;2023-03-01T13:23:38;10.07;;;3.75;;
75129;SDS011;63703;44.716;37.846;2023-03-01T13:31:00;9.65;;;6.18;;
75129;SDS011;63703;44.716;37.846;2023-03-01T13:35:57;9.25;;;4.25;;
75129;SDS011;63703;44.716;37.846;2023-03-01T13:38:37;14.40;;;5.65;;
75129;SDS011;63703;44.716;37.846;2023-03-01T13:41:06;13.45;;;5.53;;
75129;SDS011;63703;44.716;37.846;2023-03-01T13:43:34;12.88;;;4.05;;
75129;SDS011;63703;44.716;37.846;2023-03-01T13:46:07;8.85;;;4.78;;
75129;SDS011;63703;44.716;37.846;2023-03-01T13:48:40;11.77;;;5.72;;
75129;SDS011;63703;44.716;37.846;2023-03-01T13:51:10;10.60;;;3.97;;
75129;SDS011;63703;44.716;37.846;2023-03-01T13:53:44;11.80;;;4.63;;
75129;SDS011;63703;44.716;37.846;2023-03-01T13:56:13;10.70;;;4.32;;
75129;SDS011;63703;44.716;37.846;2023-03-01T14:01:25;13.13;;;5.38;;
75129;SDS011;63703;44.716;37.846;2023-03-01T14:03:56;11.65;;;4.90;;
75129;SDS011;63703;44.716;37.846;2023-03-01T14:06:24;9.32;;;5.15;;
75129;SDS011;63703;44.716;37.846;2023-03-01T14:09:04;14.27;;;6.50;;
75129;SDS011;63703;44.716;37.846;2023-03-01T14:19:54;20.38;;;5.82;;
75129;SDS011;63703;44.716;37.846;2023-03-01T14:22:23;9.18;;;5.30;;
75129;SDS011;63703;44.716;37.846;2023-03-01T14:27:42;9.75;;;5.40;;
75129;SDS011;63703;44.716;37.846;2023-03-01T14:33:17;9.77;;;5.88;;
75129;SDS011;63703;44.716;37.846;2023-03-01T14:36:00;10.65;;;5.63;;
75129;SDS011;63703;44.716;37.846;2023-03-01T14:41:04;10.63;;;5.63;;
75129;SDS011;63703;44.716;37.846;2023-03-01T14:43:45;10.00;;;5.78;;
75129;SDS011;63703;44.716;37.846;2023-03-01T14:46:41;8.05;;;4.13;;
75129;SDS011;63703;44.716;37.846;2023-03-01T14:54:18;14.43;;;3.88;;
75129;SDS011;63703;44.716;37.846;2023-03-01T14:57:00;18.35;;;7.65;;
75129;SDS011;63703;44.716;37.846;2023-03-01T14:59:27;15.35;;;7.45;;
75129;SDS011;63703;44.716;37.846;2023-03-01T15:01:54;11.98;;;8.15;;
75129;SDS011;63703;44.716;37.846;2023-03-01T15:04:22;15.25;;;7.50;;
75129;SDS011;63703;44.716;37.846;2023-03-01T15:06:53;13.38;;;5.65;;
75129;SDS011;63703;44.716;37.846;2023-03-01T15:09:21;11.38;;;6.40;;
75129;SDS011;63703;44.716;37.846;2023-03-01T15:11:50;23.88;;;7.25;;
75129;SDS011;63703;44.716;37.846;2023-03-01T15:14:27;11.68;;;7.38;;
75129;SDS011;63703;44.716;37.846;2023-03-01T15:17:52;11.63;;;6.28;;
75129;SDS011;63703;44.716;37.846;2023-03-01T15:20:00;21.10;;;5.47;;
75129;SDS011;63703;44.716;37.846;2023-03-01T15:22:29;12.48;;;6.57;;
75129;SDS011;63703;44.716;37.846;2023-03-01T15:24:55;14.32;;;6.00;;
75129;SDS011;63703;44.716;37.846;2023-03-01T15:27:22;17.60;;;6.65;;
75129;SDS011;63703;44.716;37.846;2023-03-01T15:29:59;17.40;;;6.00;;
75129;SDS011;63703;44.716;37.846;2023-03-01T15:34:55;14.18;;;7.20;;
75129;SDS011;63703;44.716;37.846;2023-03-01T15:37:36;12.40;;;6.78;;
75129;SDS011;63703;44.716;37.846;2023-03-01T15:40:16;17.70;;;5.38;;
75129;SDS011;63703;44.716;37.846;2023-03-01T15:42:50;14.02;;;7.47;;
75129;SDS011;63703;44.716;37.846;2023-03-01T15:47:58;11.00;;;6.85;;
75129;SDS011;63703;44.716;37.846;2023-03-01T15:50:31;17.33;;;8.02;;
75129;SDS011;63703;44.716;37.846;2023-03-01T15:53:07;12.02;;;6.88;;
75129;SDS011;63703;44.716;37.846;2023-03-01T15:55:37;13.50;;;4.05;;
75129;SDS011;63703;44.716;37.846;2023-03-01T15:58:10;15.80;;;6.68;;
75129;SDS011;63703;44.716;37.846;2023-03-01T16:00:39;14.00;;;6.00;;
75129;SDS011;63703;44.716;37.846;2023-03-01T16:03:05;12.05;;;7.15;;
75129;SDS011;63703;44.716;37.846;2023-03-01T16:05:33;18.00;;;8.50;;
75129;SDS011;63703;44.716;37.846;2023-03-01T16:08:00;14.07;;;8.98;;
75129;SDS011;63703;44.716;37.846;2023-03-01T16:10:26;13.73;;;7.25;;
75129;SDS011;63703;44.716;37.846;2023-03-01T16:12:53;14.30;;;7.53;;
75129;SDS011;63703;44.716;37.846;2023-03-01T16:15:21;13.40;;;7.53;;
75129;SDS011;63703;44.716;37.846;2023-03-01T16:17:52;13.57;;;9.85;;
75129;SDS011;63703;44.716;37.846;2023-03-01T16:20:22;25.60;;;8.52;;
75129;SDS011;63703;44.716;37.846;2023-03-01T16:22:48;16.92;;;8.05;;
75129;SDS011;63703;44.716;37.846;2023-03-01T16:25:15;13.98;;;7.75;;
75129;SDS011;63703;44.716;37.846;2023-03-01T16:27:43;23.02;;;7.38;;
75129;SDS011;63703;44.716;37.846;2023-03-01T16:30:11;15.95;;;9.02;;
75129;SDS011;63703;44.716;37.846;2023-03-01T16:32:38;20.63;;;10.18;;
75129;SDS011;63703;44.716;37.846;2023-03-01T16:35:06;16.80;;;7.95;;
75129;SDS011;63703;44.716;37.846;2023-03-01T16:37:32;21.20;;;8.40;;
75129;SDS011;63703;44.716;37.846;2023-03-01T16:39:59;23.25;;;9.93;;
75129;SDS011;63703;44.716;37.846;2023-03-01T16:42:25;14.93;;;8.65;;
75129;SDS011;63703;44.716;37.846;2023-03-01T16:44:55;20.52;;;8.02;;